MDT,Max TemperatureF,Mean TemperatureF,Min TemperatureF,Max Dew PointF,MeanDew PointF,Min DewpointF,Max Humidity, Mean Humidity, Min Humidity, Max Sea Level PressureIn, Mean Sea Level PressureIn, Min Sea Level PressureIn, Max VisibilityMiles, Mean VisibilityMiles, Min VisibilityMiles, Max Wind SpeedMPH, Mean Wind SpeedMPH, Max Gust SpeedMPH,PrecipitationIn, CloudCover, Events, WindDirDegrees
2013-6-1,67,52,37,44,40,32,100,64,28,30.31,30.18,30.00,10,9,1,10,3,13,0.00,2,,290
2013-6-2,67,57,47,46,44,40,86,63,40,29.98,29.89,29.80,10,10,10,22,4,28,0.01,4,Rain,307
2013-6-3,61,54,46,51,47,44,93,80,67,30.13,29.98,29.90,10,10,6,17,2,22,0.18,8,Rain,175
2013-6-4,68,53,37,47,38,30,100,64,28,30.22,30.17,30.11,10,10,10,10,3,13,0.00,0,,151
2013-6-5,75,57,38,49,42,37,93,63,33,30.14,30.05,29.92,10,10,10,17,6,22,0.00,0,,164
2013-6-6,80,64,47,53,50,45,93,65,36,30.01,29.95,29.86,10,10,10,16,4,20,0.00,1,,153
2013-6-7,79,64,48,55,49,41,93,61,28,29.88,29.82,29.74,10,9,2,26,7,33,0.33,4,Rain-Thunderstorm,239
2013-6-8,78,62,45,54,45,36,100,62,23,29.95,29.91,29.83,10,6,0,16,6,22,0.04,2,Fog-Rain,200
2013-6-9,76,60,44,47,38,29,93,56,19,29.91,29.82,29.78,10,10,10,22,9,29,0.00,1,,226
2013-6-10,77,57,36,49,38,34,92,58,23,29.88,29.81,29.72,10,10,10,15,3,21,0.00,0,,194
2013-6-11,78,64,49,52,44,38,93,59,25,29.95,29.81,29.73,10,9,2,33,8,41,0.14,2,Rain,25
2013-6-12,68,58,47,49,46,41,100,69,37,30.05,30.00,29.95,10,10,7,8,2,21,T,4,,168
2013-6-13,64,53,42,50,46,40,89,68,46,30.03,29.99,29.95,10,10,6,18,6,22,0.02,6,Rain,167
2013-6-14,62,50,38,44,41,37,92,67,42,30.10,30.06,30.02,10,10,10,20,6,24,0.02,7,Rain,216
2013-6-15,73,57,40,45,42,36,100,64,27,30.11,30.03,29.96,10,10,10,15,4,18,0.00,2,,180
2013-6-16,81,61,40,48,42,37,93,59,25,30.07,30.03,29.96,10,10,10,10,3,15,0.00,0,,309
2013-6-17,82,65,47,57,49,44,86,58,30,30.02,29.93,29.82,10,10,10,14,4,17,T,0,Rain-Thunderstorm,15
2013-6-18,84,68,51,56,51,47,86,60,34,29.83,29.74,29.64,10,10,6,23,5,28,0.06,1,Rain,347
2013-6-19,62,56,50,55,51,48,96,84,72,29.84,29.73,29.62,10,9,4,17,4,23,0.60,7,Rain,183
2013-6-20,53,50,47,50,46,42,96,81,66,30.09,29.88,29.70,10,9,5,22,11,29,0.87,8,Rain,166
2013-6-21,63,54,45,49,44,41,93,70,46,30.11,30.08,30.06,10,10,10,20,2,36,0.02,6,Rain,242
2013-6-22,68,54,39,51,45,38,100,74,48,30.09,30.04,29.96,10,9,1,100,3,109,0.01,4,Rain,175
2013-6-23,72,56,39,54,45,39,100,69,38,29.98,29.88,29.69,10,6,0,12,3,18,T,1,Fog,157
2013-6-24,66,60,54,56,53,48,100,82,63,29.69,29.65,29.61,10,10,8,12,3,26,0.20,6,Rain,44
2013-6-25,70,62,54,56,52,43,93,69,44,29.89,29.80,29.71,10,10,6,22,6,29,0.21,7,Rain,173
2013-6-26,72,61,50,53,50,46,96,69,41,30.09,29.99,29.88,10,10,10,16,4,23,T,4,,234
2013-6-27,79,63,47,55,50,46,100,69,37,30.22,30.17,30.09,10,8,0,12,3,15,0.00,1,Fog,157
2013-6-28,88,69,49,62,55,48,100,69,37,30.26,30.19,30.09,10,10,10,9,2,20,0.00,0,,12
2013-6-29,86,70,54,60,56,53,93,65,37,30.14,30.07,29.97,10,10,10,14,5,20,T,0,,332
2013-6-30,90,72,53,61,55,52,93,61,29,30.08,30.04,29.99,10,10,10,7,2,10,0.00,0,,317